Cottonwood, Illinois
Current Conditions -  °F | °C
As of 11:53 PM on Friday 19 Dec 2014 (Local Time) from KMTO Reporting Station
Overcast Overcast  
Wind Chill: 28°   Ceiling: 5500
Heat Index: 28°   Visibility: 10mi
Dew Point: 24°   Wind: 0mph
Humidity: 85%   Direction: NA
Pressure: 30.27"   Gusts: NA
Location:  39.2896°N, 88.2485°W
Report Text: KMTO 200553Z AUTO 00000KT 10SM OVC055 M02/M04 A3027 RMK AO2 SLP259 T10221044 11011 21022 400171067 53005
Loading
Personal Weather Stations






























Interactive Weather Map New forecast layout! Learn more

10-Day Weather Forecast

Advertisements
Track Severe Weather on mobile